PWSweather.com
Personal Weather Stations
Station Observations
948974
Valtournenche, AostaIT 11028

ValtournencheAostaIT 11028

Lat: 45.877222, Lon: 7.625556

Elevation: 5085.3018

Station Type: PCE-FWS 20

http://www.cdso.it

High Low Average
Temperature 43.9°F6.6°F 39.4°F4.1°F 40.9°F4.9°F
Dew Point 43.2°F6.2°F 37.7°F3.2°F 40.2°F4.6°F
Winds 6.0 mph -9.7 mph - Calm Calm 2.6 mph 4.2 mph
Wind Gusts 13.0 mph20.9 mph 2.0 mph3.2 mph 5.0 mph8.0 mph
Humidity 99% 91% 97%
Pressure 29.87 in1011.50 in 29.76 in1007.80 in -
Precipitation 1.45 in36.80 in - -
Hour Temp Dew Point Humidity Winds Wind Gusts Pressure Precip Precip Rate Daily Precip Total
12:13 AM 40.1°F4.5°C 39.1°F3.9°C 96% 1.0 mph SE1.6 kmh SE 2.0 mph3.2 kmh 29.76 in1007.8 mb 0.00 in0.0 mm 0.00 in0.0 mm 0.00 in0.0 mm
12:34 AM 39.4°F4.1°C 38.9°F3.8°C 98% 1.0 mph SE1.6 kmh SE 2.0 mph3.2 kmh 29.78 in1008.5 mb 0.00 in0.0 mm 0.00 in0.0 mm 0.00 in0.0 mm
12:55 AM 39.4°F4.1°C 39.1°F3.9°C 99% 2.0 mph SE3.2 kmh SE 3.0 mph4.8 kmh 29.79 in1008.8 mb 0.01 in0.3 mm 0.03 in0.8 mm 0.01 in0.3 mm
01:16 AM 39.6°F4.2°C 39.3°F4.1°C 99% 2.0 mph SE3.2 kmh SE 4.0 mph6.4 kmh 29.79 in1008.8 mb 0.04 in1.0 mm 0.05 in1.3 mm 0.04 in1.0 mm
01:37 AM 39.6°F4.2°C 39.3°F4.1°C 99% 2.0 mph SE3.2 kmh SE 3.0 mph4.8 kmh 29.78 in1008.5 mb 0.05 in1.3 mm 0.03 in0.8 mm 0.05 in1.3 mm
01:58 AM 39.4°F4.1°C 38.9°F3.8°C 98% 4.0 mph SE6.4 kmh SE 5.0 mph8.0 kmh 29.78 in1008.5 mb 0.06 in1.5 mm 0.03 in0.8 mm 0.07 in1.8 mm
02:19 AM 39.7°F4.3°C 38.4°F3.6°C 95% Calm Calm 2.0 mph3.2 kmh 29.78 in1008.5 mb 0.04 in1.0 mm 0.00 in0.0 mm 0.07 in1.8 mm
02:40 AM 39.7°F4.3°C 38.4°F3.6°C 95% 3.0 mph SE4.8 kmh SE 4.0 mph6.4 kmh 29.78 in1008.5 mb 0.04 in1.0 mm 0.00 in0.0 mm 0.08 in2.0 mm
03:01 AM 39.7°F4.3°C 38.4°F3.6°C 95% 2.0 mph SE3.2 kmh SE 3.0 mph4.8 kmh 29.79 in1008.8 mb 0.04 in1.0 mm 0.00 in0.0 mm 0.11 in2.8 mm
03:22 AM 40.3°F4.6°C 39.5°F4.2°C 97% 4.0 mph SE6.4 kmh SE 6.0 mph9.7 kmh 29.78 in1008.5 mb 0.04 in1.0 mm 0.00 in0.0 mm 0.11 in2.8 mm
03:43 AM 40.8°F4.9°C 39.0°F3.9°C 93% 5.0 mph NW8.0 kmh NW 7.0 mph11.3 kmh 29.77 in1008.1 mb 0.02 in0.5 mm 0.00 in0.0 mm 0.11 in2.8 mm
04:04 AM 40.8°F4.9°C 38.4°F3.6°C 91% 3.0 mph NW4.8 kmh NW 4.0 mph6.4 kmh 29.77 in1008.1 mb 0.00 in0.0 mm 0.00 in0.0 mm 0.11 in2.8 mm
04:25 AM 40.1°F4.5°C 37.7°F3.2°C 91% 1.0 mph NW1.6 kmh NW 2.0 mph3.2 kmh 29.79 in1008.8 mb 0.00 in0.0 mm 0.00 in0.0 mm 0.11 in2.8 mm
04:46 AM 40.1°F4.5°C 38.5°F3.6°C 94% 1.0 mph NW1.6 kmh NW 2.0 mph3.2 kmh 29.81 in1009.5 mb 0.00 in0.0 mm 0.00 in0.0 mm 0.11 in2.8 mm
05:07 AM 39.9°F4.4°C 38.6°F3.7°C 95% 2.0 mph NW3.2 kmh NW 2.0 mph3.2 kmh 29.81 in1009.5 mb 0.00 in0.0 mm 0.00 in0.0 mm 0.11 in2.8 mm
05:28 AM 39.9°F4.4°C 38.9°F3.8°C 96% 2.0 mph NW3.2 kmh NW 3.0 mph4.8 kmh 29.81 in1009.5 mb 0.00 in0.0 mm 0.00 in0.0 mm 0.11 in2.8 mm
05:49 AM 39.9°F4.4°C 39.1°F3.9°C 97% 1.0 mph NW1.6 kmh NW 2.0 mph3.2 kmh 29.82 in1009.8 mb 0.00 in0.0 mm 0.00 in0.0 mm 0.11 in2.8 mm
06:10 AM 40.5°F4.7°C 39.9°F4.4°C 98% 2.0 mph NW3.2 kmh NW 2.0 mph3.2 kmh 29.83 in1010.2 mb 0.00 in0.0 mm 0.00 in0.0 mm 0.11 in2.8 mm
06:31 AM 40.8°F4.9°C 40.0°F4.4°C 97% 2.0 mph NW3.2 kmh NW 2.0 mph3.2 kmh 29.84 in1010.5 mb 0.00 in0.0 mm 0.00 in0.0 mm 0.11 in2.8 mm
06:52 AM 41.4°F5.2°C 40.3°F4.6°C 96% 1.0 mph NW1.6 kmh NW 2.0 mph3.2 kmh 29.83 in1010.2 mb 0.00 in0.0 mm 0.00 in0.0 mm 0.11 in2.8 mm
07:13 AM 42.3°F5.7°C 41.2°F5.1°C 96% 1.0 mph NW1.6 kmh NW 2.0 mph3.2 kmh 29.83 in1010.2 mb 0.00 in0.0 mm 0.00 in0.0 mm 0.11 in2.8 mm
07:34 AM 43.9°F6.6°C 41.7°F5.4°C 92% 3.0 mph NW4.8 kmh NW 5.0 mph8.0 kmh 29.82 in1009.8 mb 0.00 in0.0 mm 0.00 in0.0 mm 0.11 in2.8 mm
07:55 AM 41.5°F5.3°C 40.2°F4.6°C 95% 3.0 mph S4.8 kmh S 5.0 mph8.0 kmh 29.85 in1010.8 mb 0.00 in0.0 mm 0.00 in0.0 mm 0.11 in2.8 mm
08:21 AM 41.7°F5.4°C 41.1°F5.1°C 98% 2.0 mph NW3.2 kmh NW 4.0 mph6.4 kmh 29.84 in1010.5 mb 0.00 in0.0 mm 0.00 in0.0 mm 0.11 in2.8 mm
08:42 AM 43.8°F6.6°C 43.2°F6.2°C 98% 2.0 mph WNW3.2 kmh WNW 4.0 mph6.4 kmh 29.80 in1009.1 mb 0.00 in0.0 mm 0.00 in0.0 mm 0.11 in2.8 mm
09:03 AM 43.9°F6.6°C 42.9°F6.1°C 96% 4.0 mph SW6.4 kmh SW 12.0 mph19.3 kmh 29.82 in1009.8 mb 0.00 in0.0 mm 0.00 in0.0 mm 0.11 in2.8 mm
09:21 AM 42.1°F5.6°C 41.6°F5.3°C 98% 6.0 mph SW9.7 kmh SW 10.0 mph16.1 kmh 29.86 in1011.2 mb 0.00 in0.0 mm 0.00 in0.0 mm 0.11 in2.8 mm
09:42 AM 41.8°F5.4°C 41.5°F5.3°C 99% 3.0 mph SW4.8 kmh SW 7.0 mph11.3 kmh 29.87 in1011.5 mb 0.00 in0.0 mm 0.00 in0.0 mm 0.11 in2.8 mm
10:21 AM 41.8°F5.4°C 41.6°F5.3°C 99% Calm Calm 3.0 mph4.8 kmh 29.86 in1011.2 mb 0.01 in0.3 mm 0.03 in0.8 mm 0.12 in3.0 mm
10:42 AM 41.8°F5.4°C 41.5°F5.3°C 99% 3.0 mph SW4.8 kmh SW 6.0 mph9.7 kmh 29.87 in1011.5 mb 0.02 in0.5 mm 0.03 in0.8 mm 0.13 in3.3 mm
11:03 AM 41.8°F5.4°C 41.5°F5.3°C 99% 2.0 mph SW3.2 kmh SW 5.0 mph8.0 kmh 29.86 in1011.2 mb 0.05 in1.3 mm 0.05 in1.3 mm 0.15 in3.8 mm
11:21 AM 42.0°F5.6°C 41.7°F5.4°C 99% 2.0 mph SW3.2 kmh SW 5.0 mph8.0 kmh 29.86 in1011.2 mb 0.04 in1.0 mm 0.00 in0.0 mm 0.15 in3.8 mm
11:42 AM 41.8°F5.4°C 41.6°F5.3°C 99% 3.0 mph SW4.8 kmh SW 7.0 mph11.3 kmh 29.85 in1010.8 mb 0.05 in1.3 mm 0.03 in0.8 mm 0.18 in4.6 mm
12:03 PM 41.7°F5.4°C 41.5°F5.3°C 99% 2.0 mph SW3.2 kmh SW 4.0 mph6.4 kmh 29.85 in1010.8 mb 0.06 in1.5 mm 0.02 in0.5 mm 0.21 in5.3 mm
12:21 PM 41.5°F5.3°C 41.2°F5.1°C 99% 1.0 mph SW1.6 kmh SW 2.0 mph3.2 kmh 29.85 in1010.8 mb 0.09 in2.3 mm 0.10 in2.5 mm 0.25 in6.4 mm
12:42 PM 41.1°F5.1°C 40.8°F4.9°C 99% 1.0 mph SW1.6 kmh SW 4.0 mph6.4 kmh 29.85 in1010.8 mb 0.09 in2.3 mm 0.00 in0.0 mm 0.27 in6.9 mm
01:03 PM 40.2°F4.6°C 39.9°F4.4°C 99% 3.0 mph NE4.8 kmh NE 6.0 mph9.7 kmh 29.86 in1011.2 mb 0.08 in2.0 mm 0.00 in0.0 mm 0.30 in7.6 mm
01:21 PM 39.5°F4.2°C 39.2°F4.0°C 99% 3.0 mph N4.8 kmh N 5.0 mph8.0 kmh 29.86 in1011.2 mb 0.08 in2.0 mm 0.00 in0.0 mm 0.33 in8.4 mm
01:42 PM 39.7°F4.3°C 39.4°F4.1°C 99% 2.0 mph 3.2 kmh 4.0 mph6.4 kmh 29.86 in1011.2 mb 0.12 in3.0 mm 0.11 in2.8 mm 0.39 in9.9 mm
02:03 PM 39.6°F4.2°C 39.1°F3.9°C 98% 2.0 mph SSW3.2 kmh SSW 10.0 mph16.1 kmh 29.87 in1011.5 mb 0.14 in3.6 mm 0.03 in0.8 mm 0.44 in11.2 mm
02:21 PM 41.0°F5.0°C 40.7°F4.8°C 99% 6.0 mph S9.7 kmh S 13.0 mph20.9 kmh 29.86 in1011.2 mb 0.12 in3.0 mm 0.00 in0.0 mm 0.45 in11.4 mm
02:42 PM 41.0°F5.0°C 40.7°F4.8°C 99% 3.0 mph S4.8 kmh S 8.0 mph12.9 kmh 29.85 in1010.8 mb 0.08 in2.0 mm 0.00 in0.0 mm 0.47 in11.9 mm
03:03 PM 41.2°F5.1°C 41.0°F5.0°C 99% 5.0 mph S8.0 kmh S 11.0 mph17.7 kmh 29.85 in1010.8 mb 0.04 in1.0 mm 0.00 in0.0 mm 0.47 in11.9 mm
03:21 PM 41.3°F5.2°C 41.1°F5.1°C 99% 4.0 mph S6.4 kmh S 8.0 mph12.9 kmh 29.84 in1010.5 mb 0.02 in0.5 mm 0.00 in0.0 mm 0.47 in11.9 mm
03:42 PM 41.3°F5.2°C 41.1°F5.1°C 99% 6.0 mph S9.7 kmh S 9.0 mph14.5 kmh 29.84 in1010.5 mb 0.01 in0.3 mm 0.00 in0.0 mm 0.48 in12.2 mm
04:03 PM 41.0°F5.0°C 40.8°F4.9°C 99% 5.0 mph S8.0 kmh S 9.0 mph14.5 kmh 29.83 in1010.2 mb 0.01 in0.3 mm 0.00 in0.0 mm 0.48 in12.2 mm